Time;durP1;ratioP1;P1;durP2;ratioP2;P2;SDS_P1;SDS_P2;PMS_P1;PMS_P2;Temp;Humidity;BMP_temperature;BMP_pressure;BME280_temperature;BME280_humidity;BME280_pressure;Samples;Min_cycle;Max_cycle;Signal;HPM_P1;HPM_P2
2021/09/28 00:01:18;;;;;;;16.35;3.45;;;;;;;10.12;99.36;102191.75;5094428;28;20027;-76
2021/09/28 00:03:44;;;;;;;16.85;3.38;;;;;;;10.12;99.44;102186.44;5094384;28;20452;-76
2021/09/28 00:06:09;;;;;;;18.00;3.15;;;;;;;10.10;99.37;102187.50;5093768;28;20032;-76
2021/09/28 00:08:36;;;;;;;19.98;3.17;;;;;;;10.09;98.94;102191.09;5094389;28;20038;-76
2021/09/28 00:11:02;;;;;;;13.30;2.50;;;;;;;10.08;98.87;102192.91;5093666;28;20082;-76
2021/09/28 00:13:27;;;;;;;10.82;2.60;;;;;;;10.07;98.29;102196.53;5093962;28;20044;-76
2021/09/28 00:15:52;;;;;;;25.08;3.38;;;;;;;10.05;98.45;102201.09;5093556;28;20067;-76
2021/09/28 00:18:18;;;;;;;23.20;3.45;;;;;;;10.03;98.75;102203.00;5093789;28;20040;-76
2021/09/28 00:20:43;;;;;;;21.95;3.30;;;;;;;10.02;98.97;102202.16;5094032;28;20032;-76
2021/09/28 00:23:13;;;;;;;15.52;3.58;;;;;;;10.00;99.24;102212.06;5075199;28;20063;-75
2021/09/28 00:25:39;;;;;;;18.67;3.80;;;;;;;9.97;99.11;102203.41;5094089;28;20024;-76
2021/09/28 00:28:05;;;;;;;20.98;3.35;;;;;;;9.96;99.09;102210.53;5093571;28;20043;-75
2021/09/28 00:30:30;;;;;;;19.00;3.78;;;;;;;9.93;99.19;102210.75;5093772;28;20391;-75
2021/09/28 00:32:55;;;;;;;16.73;3.60;;;;;;;9.92;99.27;102213.50;5092788;28;20039;-76
2021/09/28 00:35:21;;;;;;;16.40;3.13;;;;;;;9.89;99.04;102214.56;5093649;28;20032;-76
2021/09/28 00:37:46;;;;;;;21.98;3.90;;;;;;;9.88;98.98;102219.03;5093664;28;20337;-75
2021/09/28 00:40:12;;;;;;;23.15;3.75;;;;;;;9.89;99.07;102214.56;5093137;28;20036;-76
2021/09/28 00:42:37;;;;;;;20.17;4.05;;;;;;;9.89;99.09;102220.72;5093546;28;20111;-76
2021/09/28 00:45:04;;;;;;;29.88;5.22;;;;;;;9.89;99.24;102211.91;5092998;28;20175;-76
2021/09/28 00:47:30;;;;;;;25.40;3.95;;;;;;;9.87;99.27;102212.00;5093444;28;20035;-75
2021/09/28 00:49:55;;;;;;;21.30;3.40;;;;;;;9.87;99.03;102214.66;5092841;28;20158;-76
2021/09/28 00:52:21;;;;;;;23.70;4.15;;;;;;;9.88;99.20;102218.16;5075134;28;20043;-75
2021/09/28 00:54:47;;;;;;;20.27;3.70;;;;;;;9.94;99.46;102215.13;5093227;28;20024;-75
2021/09/28 00:57:13;;;;;;;21.13;3.47;;;;;;;9.96;99.67;102225.66;5092660;28;20032;-75
2021/09/28 00:59:39;;;;;;;21.80;3.20;;;;;;;10.02;99.40;102222.59;5093270;28;20032;-75
2021/09/28 01:02:06;;;;;;;22.33;3.50;;;;;;;10.05;99.42;102225.88;5092364;28;20035;-76
2021/09/28 01:04:32;;;;;;;17.75;3.40;;;;;;;10.06;99.30;102227.59;5093199;28;20073;-75
2021/09/28 01:06:59;;;;;;;16.48;3.40;;;;;;;10.06;99.00;102222.28;5092512;28;20362;-76
2021/09/28 01:09:24;;;;;;;19.40;3.15;;;;;;;10.05;98.91;102228.53;5092734;28;20028;-75
2021/09/28 01:11:50;;;;;;;15.70;3.25;;;;;;;10.03;98.56;102225.13;5092680;28;20089;-75
2021/09/28 01:14:16;;;;;;;17.60;3.35;;;;;;;10.04;98.56;102225.97;5070323;28;20393;-76
2021/09/28 01:16:41;;;;;;;21.90;3.45;;;;;;;10.01;98.45;102227.03;5072824;28;20036;-75
2021/09/28 01:19:06;;;;;;;28.75;3.58;;;;;;;9.97;98.62;102232.66;5070881;28;20103;-75
2021/09/28 01:21:32;;;;;;;27.08;3.47;;;;;;;9.98;98.98;102234.38;5072538;28;20028;-75
2021/09/28 01:23:57;;;;;;;20.92;3.60;;;;;;;9.99;99.33;102238.75;5071987;28;20415;-76
2021/09/28 01:26:26;;;;;;;11.52;2.85;;;;;;;9.95;99.03;102242.56;5072602;28;20054;-75
2021/09/28 01:28:55;;;;;;;19.85;3.65;;;;;;;9.91;98.77;102241.03;5072721;28;20043;-75
2021/09/28 01:31:21;;;;;;;21.48;3.30;;;;;;;9.91;98.61;102243.69;5072013;28;20097;-75
2021/09/28 01:33:46;;;;;;;23.33;3.63;;;;;;;9.95;98.16;102231.91;5072881;28;20453;-75
2021/09/28 01:36:12;;;;;;;24.45;3.42;;;;;;;9.99;98.52;102244.06;5071802;28;20037;-74
2021/09/28 01:38:38;;;;;;;29.52;4.25;;;;;;;10.02;98.71;102238.53;5054714;28;20078;-74
2021/09/28 01:41:04;;;;;;;19.88;3.80;;;;;;;10.00;98.67;102240.44;5071774;28;20039;-75
2021/09/28 01:43:29;;;;;;;18.70;3.20;;;;;;;9.98;98.77;102234.38;5072752;28;20182;-74
2021/09/28 01:46:00;;;;;;;33.42;3.78;;;;;;;9.95;98.67;102231.91;5072519;28;20044;-74
2021/09/28 01:48:40;;;;;;;18.00;3.08;;;;;;;9.88;98.76;102237.63;5072645;28;20035;-74
2021/09/28 01:51:06;;;;;;;22.13;3.70;;;;;;;9.83;98.50;102231.75;5071894;28;20488;-75
2021/09/28 01:53:32;;;;;;;18.48;3.60;;;;;;;9.81;98.73;102236.31;5072112;28;20116;-74
2021/09/28 01:55:57;;;;;;;24.65;3.67;;;;;;;9.75;98.95;102233.19;5072355;28;20067;-74
2021/09/28 01:58:23;;;;;;;14.80;3.80;;;;;;;9.73;99.17;102233.31;5071670;28;20475;-75
2021/09/28 02:00:48;;;;;;;18.33;3.35;;;;;;;9.71;99.32;102237.88;5072266;28;20388;-75
2021/09/28 02:03:13;;;;;;;19.05;3.13;;;;;;;9.68;99.50;102236.25;5071346;28;20460;-75
2021/09/28 02:05:39;;;;;;;21.20;3.65;;;;;;;9.73;99.52;102248.41;5071976;28;20476;-75
2021/09/28 02:08:05;;;;;;;24.05;3.10;;;;;;;9.72;99.84;102244.91;5071570;28;20034;-76
2021/09/28 02:10:31;;;;;;;25.00;3.90;;;;;;;9.76;99.71;102243.72;5072282;28;20116;-75
2021/09/28 02:12:57;;;;;;;19.42;3.38;;;;;;;9.77;99.89;102240.13;5074129;28;20067;-75
2021/09/28 02:15:22;;;;;;;19.65;3.08;;;;;;;9.76;99.47;102240.22;5094504;28;20513;-75
2021/09/28 02:17:48;;;;;;;12.40;3.00;;;;;;;9.74;99.56;102234.16;5096135;28;20532;-75
2021/09/28 02:20:13;;;;;;;23.42;3.15;;;;;;;9.67;99.42;102244.34;5095566;28;20040;-75
2021/09/28 02:22:39;;;;;;;18.38;3.63;;;;;;;9.61;99.01;102255.34;5095983;28;20078;-76
2021/09/28 02:25:06;;;;;;;20.67;3.08;;;;;;;9.53;98.95;102247.88;5077407;28;20028;-76
2021/09/28 02:27:32;;;;;;;21.85;3.10;;;;;;;9.45;98.83;102248.38;5096366;28;20032;-75
2021/09/28 02:29:57;;;;;;;21.88;3.40;;;;;;;9.41;99.10;102248.66;5096046;28;20059;-75
2021/09/28 02:32:23;;;;;;;17.67;3.30;;;;;;;9.39;99.33;102246.09;5095486;28;20039;-76
2021/09/28 02:34:48;;;;;;;23.08;4.40;;;;;;;9.52;99.93;102249.69;5077662;28;20036;-75
2021/09/28 02:37:14;;;;;;;16.55;3.65;;;;;;;9.52;100.00;102254.13;5095014;28;20039;-76
2021/09/28 02:39:42;;;;;;;15.48;3.08;;;;;;;9.51;100.00;102253.28;5095747;28;20424;-75
2021/09/28 02:42:09;;;;;;;20.05;3.60;;;;;;;9.51;99.85;102247.97;5095349;28;20400;-75
2021/09/28 02:44:34;;;;;;;18.15;3.20;;;;;;;9.53;99.85;102247.88;5095812;28;20365;-74
2021/09/28 02:47:00;;;;;;;23.45;3.45;;;;;;;9.60;99.82;102250.97;5095637;28;20130;-75
2021/09/28 02:49:25;;;;;;;18.65;3.10;;;;;;;9.62;100.00;102249.09;5077051;28;20332;-75
2021/09/28 02:51:50;;;;;;;31.08;4.00;;;;;;;9.60;99.79;102256.31;5095425;28;20040;-75
2021/09/28 02:54:16;;;;;;;14.20;3.22;;;;;;;9.60;99.85;102246.53;5060093;28;20028;-75
2021/09/28 02:56:41;;;;;;;22.08;3.70;;;;;;;9.62;99.64;102254.41;5095920;28;20077;-75
2021/09/28 02:59:07;;;;;;;20.08;3.80;;;;;;;9.58;99.64;102259.06;5095389;28;20032;-75
2021/09/28 03:01:32;;;;;;;24.27;4.25;;;;;;;9.54;99.52;102246.94;5095290;28;20028;-75
2021/09/28 03:03:57;;;;;;;25.05;4.13;;;;;;;9.53;99.44;102255.84;5095392;28;20456;-75
2021/09/28 03:06:23;;;;;;;24.90;3.67;;;;;;;9.49;99.62;102252.56;5094376;28;20472;-75
2021/09/28 03:08:48;;;;;;;20.55;3.90;;;;;;;9.47;99.52;102266.88;5095243;28;20028;-75
2021/09/28 03:11:14;;;;;;;21.00;5.00;;;;;;;9.47;99.72;102266.88;5094799;28;20032;-76
2021/09/28 03:13:39;;;;;;;25.77;4.00;;;;;;;9.45;99.71;102264.31;5095196;28;20052;-75
2021/09/28 03:16:05;;;;;;;16.60;3.95;;;;;;;9.43;99.57;102270.66;5095178;28;20028;-75
2021/09/28 03:18:30;;;;;;;20.67;3.88;;;;;;;9.40;99.63;102265.56;5094524;28;20044;-75
2021/09/28 03:20:55;;;;;;;30.45;3.80;;;;;;;9.38;99.70;102276.28;5094987;28;20113;-75
2021/09/28 03:23:21;;;;;;;20.65;4.22;;;;;;;9.41;99.89;102278.72;5094165;28;20039;-75
2021/09/28 03:25:47;;;;;;;22.55;4.13;;;;;;;9.39;99.86;102277.13;5093490;28;20032;-75
2021/09/28 03:28:12;;;;;;;19.67;3.78;;;;;;;9.41;100.00;102268.09;5094483;28;20111;-76
2021/09/28 03:30:38;;;;;;;20.60;4.05;;;;;;;9.40;100.00;102274.38;5095167;28;20063;-75
2021/09/28 03:33:05;;;;;;;23.33;3.78;;;;;;;9.42;100.00;102272.47;5094964;28;20036;-75
2021/09/28 03:35:30;;;;;;;22.40;3.97;;;;;;;9.42;100.00;102269.81;5094066;28;20396;-75
2021/09/28 03:37:56;;;;;;;24.77;4.90;;;;;;;9.47;100.00;102273.03;5094809;28;20078;-75
2021/09/28 03:40:21;;;;;;;31.90;5.65;;;;;;;9.53;100.00;102277.94;5094479;28;20090;-75
2021/09/28 03:42:48;;;;;;;16.85;3.58;;;;;;;9.54;100.00;102281.47;5095105;28;20110;-75
2021/09/28 03:45:13;;;;;;;14.88;3.67;;;;;;;9.53;100.00;102285.09;5094104;28;20122;-76
2021/09/28 03:47:39;;;;;;;29.55;4.13;;;;;;;9.51;100.00;102289.66;5094957;28;20118;-75
2021/09/28 03:50:06;;;;;;;23.98;4.90;;;;;;;9.47;100.00;102282.81;5094478;28;20430;-75
2021/09/28 03:52:32;;;;;;;17.95;4.63;;;;;;;9.46;99.93;102283.75;5094117;28;20032;-75
2021/09/28 03:54:57;;;;;;;23.80;4.57;;;;;;;9.43;99.96;102278.63;5094286;28;20508;-75
2021/09/28 03:57:22;;;;;;;23.73;3.92;;;;;;;9.41;99.87;102283.19;5075740;28;20139;-75
2021/09/28 03:59:48;;;;;;;18.88;4.03;;;;;;;9.41;99.35;102285.88;5094546;28;20070;-76
2021/09/28 04:02:14;;;;;;;29.77;5.13;;;;;;;9.42;99.64;102282.22;5094633;28;20055;-75
2021/09/28 04:04:40;;;;;;;25.67;4.13;;;;;;;9.44;99.50;102286.50;5094022;28;20530;-75
2021/09/28 04:07:05;;;;;;;25.52;4.35;;;;;;;9.43;99.43;102287.44;5076274;28;20028;-75
2021/09/28 04:09:30;;;;;;;24.45;4.55;;;;;;;9.43;99.46;102291.91;5093658;28;20099;-75
2021/09/28 04:11:56;;;;;;;16.73;3.58;;;;;;;9.39;99.82;102293.94;5094497;28;20074;-75
2021/09/28 04:14:21;;;;;;;27.48;4.10;;;;;;;9.38;99.72;102300.19;5093563;28;20056;-75
2021/09/28 04:16:48;;;;;;;21.77;4.43;;;;;;;9.37;99.78;102301.13;5094198;28;20031;-75
2021/09/28 04:19:13;;;;;;;24.55;4.05;;;;;;;9.37;99.68;102305.59;5076006;28;20043;-75
2021/09/28 04:21:39;;;;;;;23.52;5.00;;;;;;;9.42;99.58;102309.69;5093499;28;20453;-75
2021/09/28 04:24:06;;;;;;;27.90;4.55;;;;;;;9.49;100.00;102310.13;5094114;28;20089;-76
2021/09/28 04:26:33;;;;;;;19.77;3.67;;;;;;;9.61;100.00;102304.03;5093388;28;20071;-76
2021/09/28 04:28:58;;;;;;;22.08;4.32;;;;;;;9.72;100.00;102306.03;5093892;28;20028;-75
2021/09/28 04:31:24;;;;;;;20.63;3.85;;;;;;;9.78;100.00;102300.31;5092976;28;20038;-75
2021/09/28 04:33:49;;;;;;;19.38;3.88;;;;;;;9.85;99.94;102291.00;5093745;28;20488;-75
2021/09/28 04:36:15;;;;;;;19.20;4.10;;;;;;;9.92;99.99;102298.59;5093645;28;20032;-75
2021/09/28 04:38:40;;;;;;;24.55;4.78;;;;;;;9.98;100.00;102296.38;5074996;28;20044;-75
2021/09/28 04:41:06;;;;;;;17.23;3.58;;;;;;;10.00;99.66;102298.94;5093323;28;20032;-75
2021/09/28 04:43:32;;;;;;;22.20;3.60;;;;;;;9.98;99.22;102307.00;5092713;28;20543;-75
2021/09/28 04:45:57;;;;;;;17.92;4.10;;;;;;;9.96;98.94;102308.06;5093590;28;20032;-75
2021/09/28 04:48:22;;;;;;;26.88;4.22;;;;;;;9.93;98.97;102306.47;5092927;28;20030;-75
2021/09/28 04:50:49;;;;;;;21.52;3.90;;;;;;;9.85;98.89;102304.31;5093427;28;20119;-75
2021/09/28 04:53:15;;;;;;;24.98;4.00;;;;;;;9.80;98.83;102305.53;5093360;28;20031;-74
2021/09/28 04:55:41;;;;;;;29.77;5.18;;;;;;;9.74;99.35;102309.44;5092454;28;20334;-75
2021/09/28 04:58:06;;;;;;;22.15;4.20;;;;;;;9.67;98.90;102303.69;5075194;28;20035;-75
2021/09/28 05:00:32;;;;;;;18.58;4.10;;;;;;;9.64;99.04;102306.53;5092829;28;20054;-75
2021/09/28 05:02:57;;;;;;;22.40;3.60;;;;;;;9.60;99.03;102309.44;5093277;28;20024;-74
2021/09/28 05:05:23;;;;;;;28.15;4.70;;;;;;;9.56;99.26;102310.63;5092755;28;20069;-77
2021/09/28 05:07:48;;;;;;;24.58;4.20;;;;;;;9.51;99.24;102311.75;5093459;28;20032;-75
2021/09/28 05:10:13;;;;;;;31.50;5.50;;;;;;;9.48;99.71;102319.03;5093097;28;20036;-75
2021/09/28 05:12:39;;;;;;;18.88;4.70;;;;;;;9.48;100.00;102317.25;5091908;28;20032;-75
2021/09/28 05:15:05;;;;;;;23.20;4.43;;;;;;;9.47;100.00;102312.88;5092994;28;20465;-74
2021/09/28 05:17:31;;;;;;;24.25;4.32;;;;;;;9.50;99.97;102322.47;5092064;28;20067;-75
2021/09/28 05:19:57;;;;;;;19.27;4.50;;;;;;;9.46;100.00;102310.31;5074682;28;20028;-75
2021/09/28 05:22:23;;;;;;;25.95;4.85;;;;;;;9.41;100.00;102315.94;5093112;28;20036;-80
2021/09/28 05:24:48;;;;;;;23.70;4.70;;;;;;;9.37;100.00;102318.88;5092305;28;20032;-75
2021/09/28 05:27:14;;;;;;;18.67;4.43;;;;;;;9.35;100.00;102317.16;5093043;28;20039;-75
2021/09/28 05:29:40;;;;;;;20.13;4.97;;;;;;;9.38;100.00;102324.09;5092297;28;20042;-76
2021/09/28 05:32:06;;;;;;;19.20;4.80;;;;;;;9.41;100.00;102326.56;5092787;28;20036;-74
2021/09/28 05:34:32;;;;;;;27.63;4.85;;;;;;;9.41;100.00;102331.03;5087527;28;20525;-75
2021/09/28 05:36:58;;;;;;;24.40;5.00;;;;;;;9.42;100.00;102328.28;5089844;28;20032;-75
2021/09/28 05:39:23;;;;;;;29.63;5.25;;;;;;;9.39;100.00;102336.44;5089522;28;20384;-75
2021/09/28 05:41:49;;;;;;;23.83;5.63;;;;;;;9.40;100.00;102332.81;5070651;28;20040;-76
2021/09/28 05:44:14;;;;;;;27.83;4.70;;;;;;;9.39;100.00;102338.22;5089488;28;20107;-75
2021/09/28 05:46:39;;;;;;;27.25;5.13;;;;;;;9.35;100.00;102342.88;5089131;28;20476;-76
2021/09/28 05:49:05;;;;;;;17.23;4.28;;;;;;;9.32;100.00;102343.91;5089064;28;20144;-76
2021/09/28 05:51:33;;;;;;;28.95;4.85;;;;;;;9.33;100.00;102340.31;5089686;28;20036;-75
2021/09/28 05:54:00;;;;;;;28.33;5.13;;;;;;;9.34;100.00;102325.22;5089567;28;20048;-78
2021/09/28 05:56:25;;;;;;;23.92;5.65;;;;;;;9.36;100.00;102333.97;5089460;28;20028;-75
2021/09/28 05:58:51;;;;;;;29.67;5.85;;;;;;;9.39;100.00;102335.56;5089139;28;20479;-76
2021/09/28 06:01:16;;;;;;;27.00;5.20;;;;;;;9.42;100.00;102335.38;5089549;28;20461;-75
2021/09/28 06:03:41;;;;;;;34.33;6.00;;;;;;;9.48;100.00;102340.28;5089013;28;20042;-74
2021/09/28 06:06:07;;;;;;;25.38;4.63;;;;;;;9.51;100.00;102340.13;5089212;28;20024;-73
2021/09/28 06:08:34;;;;;;;18.98;4.28;;;;;;;9.55;100.00;102338.13;5089087;28;20032;-74
2021/09/28 06:10:59;;;;;;;18.33;4.43;;;;;;;9.55;100.00;102346.09;5089490;28;20400;-75
2021/09/28 06:13:24;;;;;;;25.55;4.50;;;;;;;9.55;100.00;102333.66;5087747;28;20070;-74
2021/09/28 06:15:50;;;;;;;22.90;4.38;;;;;;;9.56;100.00;102342.50;5087668;28;20400;-74
2021/09/28 06:18:15;;;;;;;26.25;5.25;;;;;;;9.56;100.00;102337.19;5091758;28;20052;-74
2021/09/28 06:20:40;;;;;;;23.60;5.25;;;;;;;9.62;100.00;102339.47;5091433;28;20024;-74
2021/09/28 06:23:06;;;;;;;23.75;4.63;;;;;;;9.66;100.00;102344.47;5092513;28;20040;-73
2021/09/28 06:25:32;;;;;;;19.48;4.32;;;;;;;9.69;100.00;102346.09;5092241;28;20028;-73
2021/09/28 06:27:57;;;;;;;18.90;3.83;;;;;;;9.73;100.00;102342.28;5092047;28;20033;-73
2021/09/28 06:30:22;;;;;;;22.20;4.03;;;;;;;9.76;100.00;102341.25;5092231;28;20087;-73
2021/09/28 06:32:48;;;;;;;22.70;4.22;;;;;;;9.75;100.00;102337.72;5091589;28;20483;-73
2021/09/28 06:35:13;;;;;;;20.55;3.92;;;;;;;9.77;100.00;102337.63;5092284;28;20071;-73
2021/09/28 06:37:38;;;;;;;20.20;4.05;;;;;;;9.78;100.00;102345.50;5091575;28;20115;-74
2021/09/28 06:40:05;;;;;;;22.58;4.85;;;;;;;9.80;100.00;102348.06;5092238;28;20453;-73
2021/09/28 06:42:30;;;;;;;23.10;4.15;;;;;;;9.81;100.00;102350.63;5092112;28;20039;-73
2021/09/28 06:44:55;;;;;;;19.08;4.72;;;;;;;9.86;100.00;102355.66;5073342;28;20036;-72
2021/09/28 06:47:21;;;;;;;34.22;5.25;;;;;;;9.87;100.00;102352.06;5091825;28;20066;-72
2021/09/28 06:49:46;;;;;;;24.25;4.22;;;;;;;9.91;100.00;102355.34;5073344;28;20075;-73
2021/09/28 06:52:12;;;;;;;26.90;4.25;;;;;;;9.95;100.00;102357.72;5092056;28;20514;-73
2021/09/28 06:54:38;;;;;;;22.92;3.67;;;;;;;10.02;100.00;102352.88;5091433;28;20036;-74
2021/09/28 06:57:04;;;;;;;15.55;3.85;;;;;;;10.10;99.50;102347.06;5092064;28;20457;-73
2021/09/28 06:59:29;;;;;;;15.52;3.47;;;;;;;10.14;99.05;102351.25;5092065;28;20035;-73
2021/09/28 07:01:54;;;;;;;17.42;3.72;;;;;;;10.19;99.24;102349.97;5094817;28;20032;-73
2021/09/28 07:04:20;;;;;;;18.50;3.83;;;;;;;10.24;99.23;102347.88;5095604;28;20043;-73
2021/09/28 07:06:46;;;;;;;25.10;3.85;;;;;;;10.31;99.04;102355.44;5094622;28;20119;-74
2021/09/28 07:09:11;;;;;;;22.65;3.70;;;;;;;10.36;98.76;102359.56;5095481;28;20387;-73
2021/09/28 07:11:36;;;;;;;26.63;4.07;;;;;;;10.50;97.89;102353.31;5095057;28;20032;-72
2021/09/28 07:14:02;;;;;;;17.58;3.58;;;;;;;10.56;97.18;102350.25;5094090;28;20055;-73
2021/09/28 07:16:27;;;;;;;19.88;4.00;;;;;;;10.62;97.31;102348.16;5077192;28;20066;-73
2021/09/28 07:18:52;;;;;;;14.98;2.83;;;;;;;10.76;97.51;102358.69;5094219;28;20468;-73
2021/09/28 07:21:18;;;;;;;11.98;3.70;;;;;;;10.89;96.82;102356.06;5095109;28;20125;-73
2021/09/28 07:23:43;;;;;;;22.08;3.90;;;;;;;11.01;96.48;102357.06;5094611;28;20425;-73
2021/09/28 07:26:10;;;;;;;19.02;3.92;;;;;;;11.14;96.29;102360.59;5094978;28;20028;-73
2021/09/28 07:28:36;;;;;;;16.05;3.50;;;;;;;11.23;95.16;102361.75;5095156;28;20380;-73
2021/09/28 07:31:02;;;;;;;17.67;3.70;;;;;;;11.32;95.12;102366.44;5094449;28;20032;-73
2021/09/28 07:33:28;;;;;;;23.55;4.25;;;;;;;11.44;95.45;102376.25;5095081;28;20032;-73
2021/09/28 07:35:54;;;;;;;15.20;3.10;;;;;;;11.59;93.56;102368.97;5094070;28;20032;-72
2021/09/28 07:38:19;;;;;;;18.92;3.40;;;;;;;11.73;92.22;102372.47;5094908;28;20040;-72
2021/09/28 07:40:49;;;;;;;15.55;3.67;;;;;;;11.89;92.43;102369.59;5094069;28;20480;-73
2021/09/28 07:43:16;;;;;;;14.82;3.10;;;;;;;11.99;91.92;102374.16;5094882;28;20047;-73
2021/09/28 07:45:42;;;;;;;14.10;3.33;;;;;;;12.03;90.79;102374.78;5094812;28;20045;-73
2021/09/28 07:48:08;;;;;;;16.10;2.88;;;;;;;12.09;90.69;102373.50;5094573;28;20036;-73
2021/09/28 07:50:33;;;;;;;16.40;3.38;;;;;;;12.21;89.99;102363.75;5076722;28;20036;-73
2021/09/28 07:52:59;;;;;;;14.45;3.30;;;;;;;12.31;88.80;102364.78;5094044;28;20509;-73
2021/09/28 07:55:26;;;;;;;15.02;3.78;;;;;;;12.43;88.95;102369.19;5094508;28;20038;-73
2021/09/28 07:57:52;;;;;;;18.05;3.53;;;;;;;12.65;88.28;102372.94;5093787;28;20039;-73
2021/09/28 08:00:17;;;;;;;14.10;3.00;;;;;;;13.09;90.90;102376.72;5094659;28;20024;-72
2021/09/28 08:02:43;;;;;;;11.07;2.53;;;;;;;13.34;85.42;102381.03;5094408;28;20039;-73
2021/09/28 08:05:09;;;;;;;14.25;3.10;;;;;;;13.52;83.80;102373.41;5093677;28;20032;-73
2021/09/28 08:07:35;;;;;;;12.55;2.65;;;;;;;13.70;82.76;102376.47;5094371;28;20376;-73
2021/09/28 08:10:01;;;;;;;14.85;2.92;;;;;;;14.06;91.11;102377.16;5093573;28;20126;-73
2021/09/28 08:12:26;;;;;;;16.10;3.30;;;;;;;14.26;81.15;102369.31;5093623;28;20480;-73
2021/09/28 08:14:53;;;;;;;12.98;2.95;;;;;;;14.50;81.67;102374.47;5093600;28;20102;-73
2021/09/28 08:17:19;;;;;;;18.23;3.15;;;;;;;14.74;82.60;102368.06;5094116;28;20097;-73
2021/09/28 08:19:44;;;;;;;15.23;3.55;;;;;;;14.95;76.67;102368.06;5094224;28;20035;-73
2021/09/28 08:22:12;;;;;;;12.70;3.33;;;;;;;15.32;75.21;102371.13;5093268;28;20032;-73
2021/09/28 08:24:42;;;;;;;17.90;3.67;;;;;;;15.84;73.48;102375.63;5094028;28;20028;-73
2021/09/28 08:29:59;;;;;;;17.65;3.72;;;;;;;16.32;73.93;102379.41;5093404;28;20059;-72
2021/09/28 08:32:24;;;;;;;13.18;2.63;;;;;;;16.61;71.72;102379.38;5093995;28;20028;-73
2021/09/28 08:34:51;;;;;;;18.42;2.85;;;;;;;16.93;67.38;102380.97;5092962;28;20039;-73
2021/09/28 08:37:17;;;;;;;12.40;2.88;;;;;;;16.85;67.99;102380.78;5093801;28;20032;-73
2021/09/28 08:39:43;;;;;;;14.40;2.60;;;;;;;16.69;68.35;102384.06;5093605;28;20024;-73
2021/09/28 08:42:09;;;;;;;16.85;3.22;;;;;;;16.92;70.39;102385.50;5093052;28;20047;-73
2021/09/28 08:44:34;;;;;;;21.20;2.95;;;;;;;17.29;67.61;102378.50;5093385;28;20043;-73
2021/09/28 08:47:00;;;;;;;14.68;2.58;;;;;;;17.76;64.72;102375.75;5093009;28;20469;-72
2021/09/28 08:49:25;;;;;;;19.52;2.80;;;;;;;18.47;61.08;102378.75;5093531;28;20114;-73
2021/09/28 08:51:52;;;;;;;13.70;2.60;;;;;;;19.32;57.92;102371.00;5093378;28;20472;-74
2021/09/28 08:54:18;;;;;;;15.70;3.25;;;;;;;20.59;53.64;102373.78;5093632;28;20028;-73
2021/09/28 08:56:45;;;;;;;12.98;2.95;;;;;;;21.41;50.30;102376.41;5093536;28;20037;-72
2021/09/28 08:59:13;;;;;;;10.55;2.80;;;;;;;22.49;48.22;102380.28;5092834;28;20034;-73
2021/09/28 09:02:08;;;;;;;21.08;3.13;;;;;;;22.91;46.85;102369.94;5093260;28;20028;-73
2021/09/28 09:04:34;;;;;;;11.15;2.58;;;;;;;22.94;45.30;102369.56;5093370;28;20118;-73
2021/09/28 09:06:59;;;;;;;11.23;2.92;;;;;;;23.41;44.97;102365.72;5092650;28;20106;-73
2021/09/28 09:09:25;;;;;;;15.05;2.70;;;;;;;23.92;44.51;102375.81;5093468;28;20377;-73
2021/09/28 09:11:52;;;;;;;15.75;2.65;;;;;;;23.54;44.49;102373.22;5075054;28;20027;-73
2021/09/28 09:14:22;;;;;;;16.58;3.38;;;;;;;23.37;44.28;102369.00;5092111;28;20090;-73
2021/09/28 09:16:50;;;;;;;14.52;2.97;;;;;;;23.37;44.21;102369.84;5075221;28;20380;-73
2021/09/28 09:19:17;;;;;;;13.57;2.35;;;;;;;23.45;43.57;102368.06;5092198;28;20464;-73
2021/09/28 09:21:46;;;;;;;13.48;2.58;;;;;;;23.73;43.84;102365.50;5092782;28;20391;-73
2021/09/28 09:24:12;;;;;;;17.13;3.17;;;;;;;24.03;42.92;102373.63;5092356;28;20065;-74
2021/09/28 09:26:44;;;;;;;11.57;2.90;;;;;;;24.33;41.38;102362.66;5092898;28;20040;-73
2021/09/28 09:29:12;;;;;;;14.65;2.88;;;;;;;24.86;40.37;102360.41;5092069;28;20032;-74
2021/09/28 09:31:39;;;;;;;19.00;3.10;;;;;;;24.56;42.08;102360.56;5093070;28;20020;-73
2021/09/28 09:34:14;;;;;;;14.32;3.10;;;;;;;24.52;40.29;102355.72;5091980;28;20061;-74
2021/09/28 09:36:40;;;;;;;14.48;3.00;;;;;;;24.95;40.14;102358.41;5092781;28;20028;-74
2021/09/28 09:39:09;;;;;;;11.70;2.90;;;;;;;24.82;40.02;102357.25;5092165;28;20028;-74
2021/09/28 09:41:36;;;;;;;13.10;2.85;;;;;;;24.44;40.04;102352.09;5092878;28;20165;-73
2021/09/28 09:44:10;;;;;;;15.18;2.65;;;;;;;24.82;40.05;102340.91;5092026;28;20384;-73
2021/09/28 09:46:47;;;;;;;20.85;3.40;;;;;;;25.20;40.17;102339.72;5092692;28;20101;-73
2021/09/28 09:49:23;;;;;;;14.65;2.83;;;;;;;25.36;41.10;102346.72;5073826;28;20498;-74
2021/09/28 09:51:51;;;;;;;19.98;3.50;;;;;;;25.83;39.70;102339.59;5092736;28;20078;-73
2021/09/28 09:54:17;;;;;;;17.45;3.05;;;;;;;26.11;38.35;102332.34;5091861;28;20032;-73
2021/09/28 09:56:52;;;;;;;13.45;2.90;;;;;;;25.78;39.63;102333.94;5074531;28;20054;-73
2021/09/28 09:59:21;;;;;;;17.25;2.92;;;;;;;25.45;38.55;102345.53;5091708;28;20058;-73
2021/09/28 10:01:47;;;;;;;16.77;2.90;;;;;;;25.16;39.50;102341.16;5074441;28;20361;-73
2021/09/28 10:04:20;;;;;;;13.65;3.00;;;;;;;24.88;39.30;102347.44;5091822;28;20032;-73
2021/09/28 10:06:46;;;;;;;13.50;3.08;;;;;;;25.04;40.14;102342.75;5092639;28;20028;-73
2021/09/28 10:09:14;;;;;;;12.07;2.97;;;;;;;24.86;40.98;102338.66;5091844;28;20036;-73
2021/09/28 10:11:40;;;;;;;16.30;3.05;;;;;;;25.46;40.04;102336.31;5092663;28;20059;-73
2021/09/28 10:14:06;;;;;;;12.25;2.88;;;;;;;26.19;36.40;102338.44;5091729;28;20048;-74
2021/09/28 10:16:42;;;;;;;12.70;3.38;;;;;;;25.36;38.36;102340.44;5074276;28;20032;-73
2021/09/28 10:19:29;;;;;;;13.80;2.92;;;;;;;25.19;38.32;102324.41;5091730;28;20067;-74
2021/09/28 10:21:59;;;;;;;13.52;2.80;;;;;;;24.94;38.92;102326.75;5092279;28;20103;-74
2021/09/28 10:24:25;;;;;;;13.45;2.83;;;;;;;25.05;40.60;102322.63;5091736;28;20036;-73
2021/09/28 10:27:00;;;;;;;8.13;2.13;;;;;;;24.68;39.66;102324.69;5092338;28;20034;-73
2021/09/28 10:29:37;;;;;;;12.35;2.90;;;;;;;25.33;38.92;102317.16;5091688;28;20063;-75
2021/09/28 10:32:26;;;;;;;17.38;2.85;;;;;;;24.75;41.83;102328.28;5092343;28;20032;-74
2021/09/28 10:35:07;;;;;;;17.20;2.97;;;;;;;23.28;43.04;102315.81;5059003;28;20048;-72
2021/09/28 10:37:55;;;;;;;15.57;3.15;;;;;;;22.04;44.45;102311.47;5092948;28;20687;-74
2021/09/28 10:40:20;;;;;;;11.68;2.65;;;;;;;21.83;45.52;102309.41;5076573;28;20453;-74
2021/09/28 10:42:56;;;;;;;13.52;3.05;;;;;;;20.86;49.00;102302.28;5093717;28;20028;-73
2021/09/28 10:45:41;;;;;;;13.25;3.25;;;;;;;20.60;50.08;102310.56;5092558;28;20460;-73
2021/09/28 10:48:11;;;;;;;12.35;2.72;;;;;;;20.43;49.46;102309.72;5092371;28;20077;-74
2021/09/28 10:50:41;;;;;;;10.52;3.15;;;;;;;20.35;51.36;102310.59;5092476;28;20044;-73
2021/09/28 10:53:18;;;;;;;15.90;3.42;;;;;;;20.05;51.74;102306.69;5092722;28;20024;-75
2021/09/28 10:55:56;;;;;;;12.77;2.95;;;;;;;19.79;52.54;102313.00;5092789;28;20479;-74
2021/09/28 10:58:22;;;;;;;14.98;3.42;;;;;;;19.52;50.99;102293.31;5092139;28;20084;-74
2021/09/28 11:00:54;;;;;;;15.15;3.10;;;;;;;19.50;51.56;102297.22;5092784;28;20036;-74
2021/09/28 11:03:44;;;;;;;13.15;2.58;;;;;;;19.60;49.88;102291.66;5092008;28;20031;-75
2021/09/28 11:06:10;;;;;;;12.20;3.15;;;;;;;19.53;50.07;102292.31;5088919;28;20119;-74
2021/09/28 11:08:36;;;;;;;17.48;2.85;;;;;;;19.56;50.14;102285.75;5094395;28;20028;-74
2021/09/28 11:11:10;;;;;;;14.02;3.03;;;;;;;19.46;51.50;102293.13;5095092;28;20036;-73
2021/09/28 11:13:41;;;;;;;9.15;2.03;;;;;;;19.32;50.02;102289.22;5076682;28;20028;-73
2021/09/28 11:16:10;;;;;;;18.92;2.70;;;;;;;19.27;52.81;102283.44;5095520;28;20369;-73
2021/09/28 11:18:38;;;;;;;10.93;2.50;;;;;;;19.16;51.76;102285.41;5094992;28;20028;-72
2021/09/28 11:21:12;;;;;;;11.88;2.28;;;;;;;19.23;51.14;102280.22;5095251;28;20028;-74